Mad River Glen, Vermont
Current Conditions -  °F | °C
As of 9:20 AM on Tuesday 27 Jan 2015 (Local Time) from KMPV Reporting Station
Moderate Snow Moderate Snow  
Wind Chill: -10°   Ceiling: 1300
Heat Index:   Visibility: 0.5mi
Dew Point:   Wind: 14mph
Humidity: 73%   Direction: 350°N
Pressure: 29.84"   Gusts: 21mph
Location:  44.1924°N, 72.8443°W
Report Text: KMPV 271420Z AUTO 35012G18KT 1/2SM SN VV013 M14/M18 A2984 RMK AO2 P0000 T11391178
Loading
Personal Weather Stations






























Interactive Weather Map New forecast layout! Learn more

10-Day Weather Forecast

Advertisements
Track Severe Weather on mobile